RETRIEVE DATA

2000 2020
Return to Filters Location: LaCacheMS

(Select "open with" and choose your office/spreadsheet program, then [Save] from within the program)
Dates: to -- Select the sort direction: -- Click any header to sort data by that column.
YWN0aW9uPXNob3cmc2l0ZT03 sample_date
Site Name Sample Date Sample Time Grp # Bottom Temp Top Temp Bottom Salinity Top Salinity Bottom DO Top DO Bottom pH Top pH Bottom Turbidity Top Turbidity Depth
LaCacheMS Nov 30, 2007 16:30 NA NA 18.7 NA NA NA 9 NA 7.98 NA 30 cm NA
LaCacheMS Jan 28, 2008 14:00 NA NA 15 NA NA NA 9.2 NA NA NA 23.8 NA
LaCacheMS Feb 1, 2008 14:5 NA NA NA NA NA NA NA NA NA NA NA NA
LaCacheMS Feb 1, 2008 14:05 NA NA 15 NA NA NA NA NA NA NA NA NA
LaCacheMS Feb 1, 2008 14:02 10 NA 10.8 NA 5.40 NA NA NA NA NA NA NA
LaCacheMS Feb 1, 2008 14:00 7 NA 15 NA 6 NA NA NA 7.77 NA 20 NA
LaCacheMS Feb 1, 2008 14:02 10 NA 10.8 NA 5.40 NA 8.8 NA 7.85 NA 10 NA
LaCacheMS Feb 1, 2008 14:05 NA NA 15 NA 3 NA 10 NA 7.73 NA 22.4 NA
LaCacheMS Feb 1, 2008 14:05 NA NA 15 NA 3 NA 8.6 NA 7.5IT WAS NA NA NA
LaCacheMS Feb 1, 2008 14:05 8 NA 16 na 2 NA 8 NA 7.8 NA 10 NA
LaCacheMS Feb 1, 2008 14:02 10 NA 18 NA 540 NA 8.8 NA 7.85 NA 10.8 NA
LaCacheMS Feb 1, 2008 14:05 3 NA 16 NA 2 NA 7.2 NA 7.75 NA 17 NA
LaCacheMS Feb 1, 2008 14:05 9 NA 17 NA 2 NA 9 NA 7.78 NA 13.2 NA
LaCacheMS Feb 1, 2008 14:05 9 NA 17 NA 2 NA 9 NA 7.78 NA 13.2 NA
LaCacheMS Apr 10, 2008 1410 9 na 30 NA NA NA 5.6ppt NA NA NA 23 cm NA
LaCacheMS Apr 10, 2008 14:10 1 NA 28 NA NA 6.3 NA NA NA 22 cm NA
LaCacheMS Apr 10, 2008 14:10 5 NA 30 NA NA NA 6.4 NA NA NA 24 cm NA
LaCacheMS Apr 10, 2008 14:10 3 NA 25 NA NA NA 6.0 NA NA NA 23 cm NA
LaCacheMS Apr 10, 2008 14:10 8 NA 28 NA NA NA 6.5 NA NA NA 25 NA
LaCacheMS Apr 10, 2008 14:10 2 NA 26 NA NA NA 6.0 NA NA NA 25.4 cm NA
LaCacheMS Apr 10, 2008 14:10 7 NA 27 NA NA NA 5.2 NA NA NA 22 cm NA
LaCacheMS Apr 10, 2008 14:10 4 NA 28 NA NA NA 5.8 NA NA NA 20.5 cm NA
LaCacheMS Apr 10, 2008 14:10 6 NA 26 NA NA NA 8.2 NA NA NA 26 cm NA
LaCacheMS Apr 10, 2008 14:10 10 NA 30 NA NA NA 5.8 NA NA NA 28 NA
LaCacheMS Oct 24, 2008 NA NA NA NA NA NA NA NA NA NA NA NA
LaCacheMS Oct 24, 2008 1130 1 NA 24 NA NA NA NA NA NA NA NA
LaCacheMS Oct 24, 2008 1130 1 NA 24 NA NA NA 3.8 NA NA NA 42cm. NA
LaCacheMS Oct 24, 2008 11:30 6 NA 22 F NA NA NA NA NA NA NA 48.4 cm NA
LaCacheMS Oct 24, 2008 11:30 4 NA 20 NA NA NA 4.2 NA NA NA 55.7 NA
LaCacheMS Oct 24, 2008 11:30 2 NA 23 NA NA NA NA NA NA NA 53.2cm. NA
LaCacheMS Oct 24, 2008 11:30 5 NA 26 NA NA NA 7 NA NA NA NA NA
LaCacheMS Oct 24, 2008 11:30 5 NA 26 NA NA NA 7 NA NA NA NA NA
LaCacheMS Oct 24, 2008 11:30 8 NA 24 NA NA NA 6.2 NA NA NA NA NA
LaCacheMS Oct 24, 2008 11:30 3 28 42
LaCacheMS Oct 24, 2008 11:30 7 NA 24 NA 4.4 NA 6.8 NA NA NA 57.8cm NA
LaCacheMS Oct 24, 2008 11:30 3 NA 20 NA NA NA 6 NA NA NA 55.7cm NA
LaCacheMS Oct 24, 2008 11:30 7 NA 24 NA 4.4 NA 6.8 NA NA NA 57.8cm NA
LaCacheMS Oct 24, 2008 11:30 7 NA 24 NA 4.4 NA 6.8 NA NA NA 57.8cm NA
LaCacheMS Feb 17, 2009 11:35 8 NA NA NA NA NA NA NA NA NA NA NA
LaCacheMS Jan 1, 1900 11:35 NA NA NA NA NA NA NA NA NA NA NA NA
LaCacheMS Feb 17, 2009 11:35 9 NA 20 NA NA 8.4 NA 96 NA 17 NA
LaCacheMS Feb 17, 2009 11:35 4 NA 20 NA 50 NA 7 NA 8.3 NA 16.6 NA
LaCacheMS Feb 17, 2009 11:25 3 NA 20 NA 1 NA 8.7 NA 8.7 NA 7.2 NA
LaCacheMS Feb 17, 2009 11:35 8 NA 19 NA 1% NA 8.4 NA 8.5 NA 16.25cm NA
LaCacheMS Feb 17, 2009 1145 1 NA 19 NA 1 NA 7.2 NA 8.3 NA 15 NA
LaCacheMS Feb 17, 2009 11:35 5 NA 20 NA 1 NA 3.5 NA 8.5 NA 17 NA
LaCacheMS Feb 17, 2009 11:35 6 21.5 NA 2% NA 5.2 NA NA NA 15cm NA
LaCacheMS Feb 17, 2009 11:45 7 NA 19 NA 6 NA 7.2 NA 8.8 NA 15.4 NA
LaCacheMS Apr 9, 2009 11:25 3 NA 22 NA 0 NA 8 NA 8.7 NA 19.1 NA
LaCacheMS Apr 9, 2009 11:25 8 NA 22 NA 2 NA 7 NA 8.4 NA 15.3cm NA
LaCacheMS Apr 9, 2009 11:25 4 NA 20 NA 50 NA 6.4 NA 8.5 NA 17 NA
LaCacheMS Mar 9, 2009 11:25 NA NA 20 NA NA NA 6.8 NA 9 NA 18.8 NA
LaCacheMS Apr 9, 2009 NA NA 22 NA 0 NA 7 NA 8.0 NA 18 NA
LaCacheMS Apr 9, 2009 11:25 3 NA 22 NA 0 NA 8.0 NA 8.7 NA NA NA
LaCacheMS Apr 9, 2009 11:25 2 NA 20 NA 2 NA 6.6 NA 8.4 NA 13.2 cm NA
LaCacheMS Apr 9, 2009 11:25 5 NA 20 NA 0 NA 6.2 NA 8.6 NA 17 cm NA
LaCacheMS Sep 22, 2009 11:45 5 NA 30 NA 0 NA 4.2 NA 8.3 NA 40 cm NA
LaCacheMS Jan 19, 2010 11:30 5 NA 14 NA 1 NA 7.3 NA 9.0 20 NA
LaCacheMS Jan 19, 2010 11:30 1 NA 15 NA 0 NA 6.6 NA 8.0 21 NA
LaCacheMS Jan 19, 2010 11:30 3 NA 18 NA 1 NA 6.8 NA 8 24 NA
LaCacheMS Jan 19, 2010 11:30 6 NA 15 NA NA NA 5.2 NA 8.1 24.4 NA
LaCacheMS Jan 19, 2010 11:30 4 NA 16 NA 0 NA 5.8 NA 8.4 23.6 NA
LaCacheMS Jan 19, 2010 11:30 7 NA 15 NA 0 NA 6.4 NA 8.8 25.8 NA
LaCacheMS Feb 1, 2010 11:30 7 NA 12 NA 2 NA 8.2 NA 8.8 34.8 NA
LaCacheMS Feb 1, 2010 11:30 6 NA 14 NA 0.1 NA 5.4 NA 8.1 35.6 NA
LaCacheMS Feb 1, 2010 11:30 4 12 1 8 8.5 32
LaCacheMS Jan 1, 2010 11:30 10 13 NA 1% NA .6 NA NA 29.8 NA
LaCacheMS Feb 1, 2010 11:30 1 NA 12 NA 1.5 NA 8.6 NA 8.5 36 NA
LaCacheMS Jan 1, 1900 11;30 5 NA 11 NA 0 NA 8.0 NA 8.0 34 NA
LaCacheMS Jan 1, 2010 3 NA 16 NA 1 NA 9.5 NA 31 .1 NA
LaCacheMS Mar 4, 2010 11:20 6 NA 19 NA 2 NA 8.0 NA 7.8 35 NA
LaCacheMS Mar 4, 2010 4 NA 12 NA 2 NA 8.2 NA 8.5 23 NA
LaCacheMS Mar 4, 2010 11:30 7 NA 15 NA 2.5 NA 7.6 NA 8.4 34.4 NA
LaCacheMS Mar 4, 2010 10 NA 13 NA 2 NA 8.4 NA 8.1 26 NA
LaCacheMS Mar 4, 2010 11:30 3 NA 18 NA 3NA NA 8. NA 8.6 35 NA
LaCacheMS Mar 4, 2010 14:10 5 NA 15 NA NA NA NA NA NA NA NA
LaCacheMS Mar 4, 2010 14:10 5 NA 15 NA 0 NA 9.6 NA 8.2 22 NA
LaCacheMS Mar 4, 2010 14:02 2 NA 15 NA 0 NA 9 NA 9.3 27.8 NA
LaCacheMS Mar 4, 2010 14:10 5 NA 15 NA 0 NA 9.6 NA 8.2 22 NA
LaCacheMS Mar 4, 2010 14:10 8 15 NA 3 NA 8.2 NA 9.4 21.2 NA
LaCacheMS Mar 4, 2010 14:10 4 NA 14 NA 0.5 NA 9.0 NA 7.8 29.7 NA
LaCacheMS Mar 4, 2010 14:10 10 14 NA 3 NA 9 NA 7.9 24 NA
LaCacheMS Mar 4, 2010 14:10 6 NA 18 NA 0 NA 5 NA 7.9 21 NA
LaCacheMS Mar 4, 2010 15:10 07 NA 16 NA 0 NA 9 NA 8.0 30 NA
LaCacheMS Mar 4, 2010 14:10 3 NA 18 NA 2 NA 10 NA 7.8 22 NA
LaCacheMS Mar 4, 2010 14:10 9 NA 19 NA 0 NA 9.2 NA 7.9 27.8 NA
LaCacheMS Mar 4, 2010 11:10 5 NA 15 NA 1 NA 8.4 NA 8.5 26.5 NA
LaCacheMS Oct 20, 2010 15;00 3 28 NA 0 NA 9.6 NA 8.3 13.8 NA
LaCacheMS Oct 20, 2010 1500 2 NA 26 NA 1 NA 6.6 NA 8.5 23.4 NA
LaCacheMS Oct 20, 2010 15:00 4 NA 26 NA 0 NA 6.2 NA 8.1 10 NA
LaCacheMS Oct 20, 2010 15:00 1 NA 25 NA NA 6.2 8.2 19.6 NA
LaCacheMS Oct 20, 2010 15:00 5 NA 27 NA 0 NA 6 NA 8.2 20.23 NA
LaCacheMS Oct 20, 2010 15:00 9 NA 30 C NA 0 NA 6.4 NA 8.1 21.4 NA
LaCacheMS Nov 17, 2010 14:50 5 NA 20 3 NA 7.25 NA 8.0 37 NA
LaCacheMS Nov 17, 2010 14:50 9 NA 20 NA 3 NA 84 NA 8 45 NA
LaCacheMS Nov 17, 2010 14:50 8 25 2 NA 8 NA 8.5 47 NA
LaCacheMS Nov 17, 2010 14:50 7 21 NA 3 NA 7.2 NA 8.1 32.2 NA
LaCacheMS Nov 17, 2010 14:50 2 NA 21 NA 2 NA 8 NA 8.5 33 NA
LaCacheMS Nov 17, 2010 14:50 6 NA 21 NA 2 NA 10 NA 7.9 37 NA
LaCacheMS Nov 17, 2010 14:50 1 NA 19 NA 1.5 NA 8.1 NA 8.1 39 NA
LaCacheMS Nov 17, 2010 14:50 3 NA 22 NA 2 NA 8 NA 8.2 41 NA
LaCacheMS Jan 1, 1900 NA NA 22 NA 2 NA 8.0 NA 8.1 32 NA
LaCacheMS Jan 4, 2011 14:55 7 NA 16 NA 1 NA 8.8 NA 8.4 39.6 NA
LaCacheMS Jan 4, 2011 14:55 8 17 NA 1 NA 8.6 NA 8.3 47.6 NA
LaCacheMS Jan 11, 2011 14:55 5 NA 19 NA 1 NA 8.0 NA 8.3 43.4 NA
LaCacheMS Jan 4, 2011 14:55 1 NA 14 NA 1 NA 7 NA 8.3 41.3 NA
LaCacheMS Jan 4, 2011 14:55 6 16 NA 1.0 NA 6.8 NA 8.0 44 NA
LaCacheMS Jan 4, 2011 14:55 4 NA 18 NA 1 NA 8.5 NA 8.4 48 NA
LaCacheMS Jan 4, 2011 1455 2 NA 15 NA 1 NA 8.2 NA 8.9 42 NA
LaCacheMS Jan 4, 2011 14:55 3 NA 16 NA 1 NA 8 NA 8.2 45 NA
LaCacheMS Jan 4, 2011 14:55 3 NA 16 NA 1 NA 8 NA 8.2 45 NA
LaCacheMS Jan 4, 2011 14:55 3 NA 16 NA 1 NA 8 NA 8.2 45 NA
LaCacheMS Apr 13, 2011 NA NA 28 NA 0 NA 6.4 NA NA NA NA
LaCacheMS Apr 13, 2011 14:50 NA NA 29 NA 0 NA 7 NA 8.3 29.5 NA
LaCacheMS Apr 13, 2011 NA NA 28 NA 0 NA 6.4 NA 8.2 28.7 NA
LaCacheMS Apr 13, 2011 14:50 NA NA 29 NA 1 NA 7.6 NA 8.7 35.5 NA
LaCacheMS Apr 17, 2011 NA NA 27 NA 1 NA NA NA NA NA NA
LaCacheMS Apr 13, 2011 14:50 8 NA 25 NA 1 NA 8 NA 8.5 26 NA
LaCacheMS Apr 13, 2011 14:50 9 NA 30 NA 2 NA 7.2 NA 8.1 32.2 NA
LaCacheMS Apr 17, 2011 NA NA 27 NA 1 NA 7 NA 8.3 27 NA
LaCacheMS Apr 13, 2011 14:50 3 NA 30 NA 2 NA 7.5 NA 8.4 33.8 NA
LaCacheMS Apr 13, 2011 14:50 5 NA 27 NA 1 NA 9.2 NA 8.4 23.5 NA
LaCacheMS Sep 2, 2011 13:00 3 NA 28 NA NA NA 4.5 NA 8 NA NA
LaCacheMS Feb 13, 2012 13:00 3 NA 15 NA NA NA 12 NA 8.6 56 NA
LaCacheMS Sep 9, 2011 13:01 3 NA 20 NA NA NA 8.8 NA 8.5 44cm NA
LaCacheMS Feb 13, 2012 12:55 2 NA 13 NA NA NA 9.2 NA 9 50 NA
LaCacheMS Sep 2, 2011 13:01 3 NA 28 NA NA NA 6.4mg/L NA 7.9ppt NA NA
LaCacheMS Sep 2, 2011 13:00 4 NA 26 NA NA NA 7 NA 7.7 NA NA
LaCacheMS Sep 9, 2011 13:00 5 NA 26 NA NA NA 3.2 NA 7.8 33 NA
LaCacheMS Sep 9, 2011 13:00 4 NA 23 NA 0 NA 3 NA 7.5 36 NA
LaCacheMS Nov 18, 2011 11:05 2 NA 19 NA 4 NA 7.2 NA 8.7 34 NA
LaCacheMS Nov 18, 2011 11:05 5 NA 18 NA NA NA 5.4 NA 8.8 48 NA
LaCacheMS Nov 18, 2011 13:00 6 NA 19 NA 6 NA 9.5 NA 8.3 32 NA
LaCacheMS Nov 18, 2011 11:05 4 NA 16 NA NA NA 5.8 NA 8.3 4.75 NA
LaCacheMS Feb 13, 2012 12:55 5 NA 12 NA NA NA 9.6 NA 8.5 44 NA
LaCacheMS Feb 13, 2012 12:55 4 NA 10 NA NA NA 10 NA 8.4 45 NA
LaCacheMS Sep 2, 2011 13:00 6 NA 30 NA NA NA 7 NA 7.5 32 NA
LaCacheMS Sep 2, 2011 13:00 2 NA 28 NA NA NA 32 NA 8.3 55 NA
LaCacheMS Sep 9, 2011 13:00 8 NA 20 NA NA NA 5 NA 8 47.1 NA
LaCacheMS Sep 9, 2011 13:00 6 NA 21 NA NA NA 3.6 NA 7.4 37.4 NA
LaCacheMS Feb 13, 2012 1255 7 NA 15 NA NA 0 NA 8.6 48 NA
LaCacheMS Nov 18, 2011 11:05 8 NA 18 NA NA NA 9 NA 8.4 NA NA
LaCacheMS Feb 13, 2012 12:55 8 NA 10 NA NA NA 11 NA 8.6 NA NA
LaCacheMS Feb 13, 2012 12:55 7 NA 20 NA NA NA 8.6 NA 8.4 38 NA
LaCacheMS Sep 9, 2011 12:55 7 NA 26 NA NA 2.6 NA 7.5 44.8 NA
LaCacheMS Apr 16, 2013 14:05 4 NA 25 NA NA 7.1 NA 8.5sun NA NA
LaCacheMS Apr 16, 2013 14:05 1 NA 27 NA NA NA 5.8 NA 7.9 NA NA
LaCacheMS Apr 16, 2013 1405 4 NA 5 NA NA NA 5 NA 7.9 NA NA
LaCacheMS Apr 16, 2013 14:05 2 NA 15 NA NA NA 6.8 NA 8.5 NA NA
LaCacheMS Apr 16, 2013 14:05 7 NA 26 NA NA NA 7 NA 8.6 NA NA
LaCacheMS Apr 16, 2013 14:05 8 NA 18 NA NA NA 7.1 NA 8.4 NA NA
LaCacheMS Mar 26, 2014 11;05 07 NA 18 NA NA NA 6.8 NA 8 38 NA
LaCacheMS Feb 25, 2014 12;30 5 NA 2 NA 0 NA 6.5 NA 8.8 NA NA
LaCacheMS Feb 25, 2014 12:30 3 NA 20 NA 0 NA 5 NA 8.2 NA NA
LaCacheMS Mar 25, 2014 8 NA 15 NA 1 NA 6 NA 9 27 NA
LaCacheMS Mar 26, 2014 10:50 9 NA 20 NA 0 NA 6 NA 7.9 32 NA
LaCacheMS Mar 25, 2014 11:00 5 0 NA 1 NA 6.0 NA 8.4 NA NA
LaCacheMS Mar 26, 2014 10:50 2 NA 18 NA 0 NA 7 NA 8 32 NA
LaCacheMS Mar 25, 2014 11:01 3 NA 20 NA 0 NA 5.5 NA 8.3 36.3 NA
LaCacheMS Mar 26, 2014 11:00 1 NA 20 NA 1 NA 6 NA 8.2 32 NA
LaCacheMS Mar 26, 2014 11:00 4 NA 20 NA 0 NA 7 NA 8 40 NA
LaCacheMS Mar 26, 2014 11:00 8 NA 14 NA 1 NA 5.6 NA 9 38 NA
LaCacheMS Mar 25, 2014 10:52 2 NA 10 NA 0 NA 5.8 NA 8.8 33 NA
LaCacheMS Mar 26, 2014 11:00 5 NA -1 NA NA NA 6.8 NA 8.4 NA NA
LaCacheMS Mar 26, 2014 10:50 3 NA 14 NA 0 NA 6.5 NA 8.3 32 NA
LaCacheMS Feb 25, 2014 12:30 8 NA 15 NA NA NA 5 NA 9.1 NA NA
LaCacheMS Mar 26, 2014 11:00 6 NA 20 NA NA NA 9 NA 8.9 32.4 NA
LaCacheMS Mar 11, 2015 10:50 1 NA NA NA NA NA
LaCacheMS Mar 4, 2015 10:50 3 NA 23 NA 3 NA 8 NA 8.3 30 NA
LaCacheMS Mar 4, 2015 NA NA NA NA NA NA NA NA NA NA NA
LaCacheMS Mar 4, 2015 10:50 5 NA 20c NA 4 NA NA 8.3 28.3 NA
LaCacheMS Mar 4, 2015 10:50 8 NA 20 NA 4 NA 9.5 NA 8.4 32 NA
LaCacheMS Mar 4, 2015 10:50 9 NA 23 NA 4 NA 8 NA 8.5 37 NA
LaCacheMS Mar 4, 2015 10:50 9 NA 23 NA 4 NA 8 NA 8.5 37 NA
LaCacheMS Mar 4, 2015 10:50 7 NA 22 NA 4 NA 7.5 NA 7.9 37cm NA
LaCacheMS Mar 4, 2015 10:15 4 NA 23c NA 3ppt NA 6.6 NA 8.1 42 cm NA
LaCacheMS Mar 4, 2015 10:51 2 NA 14 NA 4 NA 7.8 NA 7.9 29.2 NA
LaCacheMS Mar 4, 2015 10:50 1 NA 22 NA 4 NA 10 NA 9.4 37.2cm NA
LaCacheMS Mar 4, 2015 10:50 6 NA 26 C NA 4 NA 8.4 NA 8.2 40 NA
LaCacheMS Mar 23, 2015 10:45 9 NA 25 NA 1 NA 6.3 NA 8.7 25 NA
LaCacheMS Mar 23, 2015 10:45 8 NA 20 NA 0 NA 6.1 NA 7.9 22 NA
LaCacheMS Mar 23, 2015 10:47 7 NA 23C NA 1 NA 5.4 NA 8.2 35 NA
LaCacheMS Mar 23, 2015 10:45 6 NA 30 NA 0 NA 5 NA 8.0 35
LaCacheMS Mar 23, 2015 10:45 5 NA 25c NA 1 NA 6.0 NA 8.5 25 NA
LaCacheMS Mar 23, 2015 10:45 2 NA 13 NA 0 NA 5.3 NA 8.2 27.1 NA
LaCacheMS Mar 23, 2015 10:45 3 NA 22 NA 0 NA 5 NA 7.9 25 NA
LaCacheMS Mar 23, 2015 10:45 4 NA NA NA NA NA 5.4mg/L NA 8.7 30.4 NA
LaCacheMS Nov 4, 2015 11:00 1 NA NA NA NA NA
LaCacheMS Nov 4, 2015 11:00 3 NA 26 NA NA 4.8 NA NA 32.1 NA
LaCacheMS Nov 4, 2015 11:00 2 NA 15 NA 98 NA NA NA 7.8 42.8 NA
LaCacheMS Nov 4, 2015 11:00 5 NA 28 NA 32 NA 5.2 NA NA NA NA
LaCacheMS Nov 4, 2015 11:00 4 NA 29 NA NA NA 6.0 NA 7.8 38.1 NA
LaCacheMS Nov 4, 2015 1100 1 NA 27 NA 0 NA 6.2 NA 8.5 46 NA
LaCacheMS Nov 4, 2015 11:00 7 NA 30 NA 0 NA 6 NA 44 NA
LaCacheMS Nov 4, 2015 11:00 8 NA 26 NA NA NA 5 NA 8 54 NA
LaCacheMS Nov 4, 2015 11:00 NA NA 9 NA 0 NA 6 NA NA NA NA
LaCacheMS Nov 4, 2015 11:00 NA NA 9 NA 0 NA 6 NA NA NA NA
LaCacheMS Feb 1, 2016 NA NA NA NA NA NA NA NA NA NA NA
LaCacheMS Feb 1, 2016 10:45 8 NA NA NA NA NA NA NA NA NA NA
LaCacheMS Feb 1, 2016 10:45 4 NA 12 NA 0 NA 5.8 NA NA NA NA
LaCacheMS Feb 1, 2016 10:45 7 20 NA 0 NA 6.8 NA 9.1 48 NA
LaCacheMS Feb 1, 2016 10:45 7 20 NA 0 NA 6.8 NA 9.1 48 NA
LaCacheMS Feb 1, 2016 10:45 8 NA 18 NA 0 NA 6.4 NA NA 43.3 NA
LaCacheMS Feb 1, 2016 10:45 4 NA 12 NA 0 NA 5.8 NA NA 48 NA
LaCacheMS Feb 1, 2016 10:45 5 NA 20 NA 0 NA 7.4 NA NA 44 NA
LaCacheMS Feb 1, 2016 10:45 8 NA 18 NA 0 NA 6.4 NA NA 43.3 NA
LaCacheMS Feb 1, 2016 10:45 3 NA 14 NA NA NA NA NA 6.2 40.2 NA
LaCacheMS Feb 1, 2016 12:25 NA NA NA NA NA NA NA NA NA NA NA
LaCacheMS Feb 1, 2016 12:25 2 NA 9 NA 0 NA 7 NA 8 45 NA
LaCacheMS Feb 1, 2016 12:25 9 NA 22 NA 22 NA 7.5 NA NA NA 45 NA
LaCacheMS Feb 1, 2016 12:25 1 NA 20 NA NA NA NA NA NA NA NA
LaCacheMS Feb 1, 2016 12:25 8 NA 20 NA 0 NA 7.4 NA 8.5 43 NA
LaCacheMS Feb 1, 2016 12:25 5 NA 22 NA 0 NA 7 NA NA 37 NA
LaCacheMS Feb 1, 2016 12:25 4 NA 20 NA 1.070 NA 7.4 NA NA 47 NA
LaCacheMS Feb 1, 2016 12:25 10 NA 20 NA 0 NA 6.4 NA NA 38 NA
LaCacheMS Feb 1, 2016 12:25 6 NA 12 NA 0 NA 6.6 NA 8.5 53 NA
LaCacheMS Feb 1, 2016 12:25 1 NA 20 NA 0 NA 7.8 NA 8.5 35 NA
LaCacheMS Feb 18, 2016 10:50 NA NA NA NA NA NA NA NA NA NA NA
LaCacheMS Feb 18, 2016 6 NA 20 NA 3 NA 8.2 NA NA 40.6 NA
LaCacheMS Feb 18, 2016 10:15 3 NA 17 NA NA NA 7.2 NA NA 34 NA
LaCacheMS Feb 18, 2016 10:47 9 NA 18 NA 0 NA 11.2 NA NA 18.4 NA
LaCacheMS Feb 18, 2016 10:15 7 NA 19 NA NA NA 6.9 NA NA 30.2 NA
LaCacheMS Feb 18, 2016 10:50 8 NA 21 NA 4 NA 7.6 NA NA 32.4 NA
LaCacheMS Feb 18, 2016 10:45 5 N/A 20 NA 0 NA 10.8 NA NA 28.2 NA
LaCacheMS Feb 18, 2016 10:48 1 NA 16 NA 4 NA 7.3 NA NA 20 NA
LaCacheMS Feb 18, 2016 12:34 8 NA 19 NA NA NA 7.2 NA NA 45 NA
LaCacheMS Feb 18, 2016 12:34 10 NA 20 NA 0 NA 6.4 NA NA 33.6 NA
LaCacheMS Feb 18, 2016 12:34 2 NA 10 NA 4 NA 6 NA NA 34.2 NA
LaCacheMS Feb 18, 2016 12:34 9 NA 19 NA 100 NA 9 NA NA 35 NA
LaCacheMS Feb 18, 2016 12:34 1 NA 19 NA NA NA 6.4 NA NA 33 NA
LaCacheMS Feb 18, 2016 12:34 5 NA 22 NA 1 NA NA NA NA 35 NA
LaCacheMS Feb 18, 2016 12:34 6 NA 20 NA 1.005 NA 8.4 NA NA 47 NA
LaCacheMS Oct 20, 2016 09:08 9 NA 30 NA 2 NA 3.6 mg/L NA 9.0 40 cm NA
LaCacheMS Oct 20, 2016 9:08 5 NA 29 NA 2 NA 6.4 NA 9.5 44 NA
LaCacheMS Oct 20, 2016 9:08 2 NA 17 NA 0 NA 3.8 NA 8 NA
LaCacheMS Oct 20, 2016 9:08 1 NA 27 NA 0 NA 4.4 NA 8.5 46 NA
LaCacheMS Oct 20, 2016 9:08 NA NA 25 NA 3 NA 2.8 NA 8 42 NA
LaCacheMS Oct 20, 2016 0908 NA NA 25 NA 0 NA 4.8 NA 8.8 59.3 NA
LaCacheMS Oct 20, 2016 9:08 NA NA 30 NA 0 NA 2 NA 8.4 48 NA
LaCacheMS Oct 20, 2016 9:08 NA NA 27 NA 1 NA 5.1 NA 9.3 53 NA
LaCacheMS Oct 27, 2016 12:30 NA 24 NA NA NA NA NA 8.0 60 NA
LaCacheMS Oct 27, 2016 12:30 NA NA 25 NA NA NA NA NA 7.5 43 NA
LaCacheMS Oct 27, 2016 12:30 NA NA 25 NA NA NA NA NA 7.5 43 NA
LaCacheMS Oct 27, 2016 12:30 NA NA 5 NA NA NA NA NA 8.0 36.8 NA
LaCacheMS Oct 27, 2016 12:30 NA NA 15 NA NA NA NA NA 8.1 21 NA
LaCacheMS Oct 27, 2016 12:30 NA NA 25 NA NA NA NA NA 8.2 60 NA
LaCacheMS Oct 17, 2016 12:15 NA 21 NA 7.7 NA NA NA NA 60 NA
LaCacheMS Nov 14, 2016 12:15 NA NA 2 NA 10 NA 4 NA 7.8 31 NA
LaCacheMS Nov 14, 2016 12:15 NA NA 19 NA 10 NA 4.5 NA 7.9 24 NA
LaCacheMS Nov 14, 2016 12:15 NA 22 NA 8 NA 4.4 NA 7.6 NA 32 NA
LaCacheMS Nov 14, 2016 12:15 NA 21 NA 5 NA 4.4 NA 7.7 NA 23 NA
LaCacheMS Nov 14, 2016 12:15 NA NA 15 NA 3 NA 4 NA 7.6 25 NA
LaCacheMS Nov 18, 2016 14:11 NA NA NA NA NA NA NA NA NA NA NA
LaCacheMS Nov 18, 2016 14:10 8 N/A 7 NA NA NA 2 NA 8.2 46 NA
LaCacheMS Nov 18, 2016 14:10 1 NA 24 NA NA NA 4.4 NA 8.5 46 NA
LaCacheMS Nov 18, 2016 14:11 5 NA 24 NA NA NA 7.6 NA 8.4 4.2 NA
LaCacheMS Nov 18, 2016 14:11 NA NA 20 NA NA 7.6 NA 8.9 26.8 NA
LaCacheMS Nov 18, 2016 14:11 2 24 NA NA 7.4 NA 26
LaCacheMS Nov 18, 2016 14:11 10 NA 23 NA NA NA 5.1 NA 8.2 53 NA
LaCacheMS Nov 18, 2016 14:11 2 24 NA NA 7.4 NA 26
LaCacheMS Nov 19, 2016 14:11 NA NA 12 NA NA NA 7.2 NA 8.8 24 NA
LaCacheMS Nov 18, 2016 14:10 9 NA 25 NA NA NA 6.9mL NA 8.4 15 NA
LaCacheMS May 16, 2017 0915 4 NA 24 NA 1.002 NA NA 8.5 NA 20 NA
LaCacheMS May 16, 2017 9:15 3 NA 28 NA 20 NA 6 10 NA 18 NA
LaCacheMS May 16, 2017 09:15 6 NA 30 NA 0 NA 4.2 8.0 NA 19.8 NA
LaCacheMS May 16, 2017 9:15 5 NA 28 NA 7 NA 7.4 NA 26 NA
LaCacheMS May 17, 2017 9:15 9 NA 26 NA 3 NA 8.8 8.6 NA 22.2 NA
LaCacheMS May 17, 2017 0915 7 NA 29 NA 5 NA 5.8 NA 28 NA
LaCacheMS May 16, 2017 0915 8 NA 8 NA 2 NA 5.8 NA NA NA
LaCacheMS May 16, 2017 0915 1 NA 28 NA 2 NA 3.6 8.9 NA NA NA
LaCacheMS Jan 24, 2018 14:10 4 NA 12 NA NA NA 8 8.0 NA 26 NA
LaCacheMS Jan 24, 2018 1410 1 NA 12 NA NA NA 6.8 8.5 NA 25 NA
LaCacheMS Jan 25, 2018 0801 5 NA 15 NA 10 NA 7.3 8.5 NA 28 NA
LaCacheMS Jan 24, 2018 1410 2 NA 10 NA 5 NA 8.8 7.6 NA 33 NA
LaCacheMS Jan 24, 2018 14:10 9 NA 11 NA 5 NA 10 8.7 NA 29 NA
LaCacheMS Jan 25, 2018 1410 3 NA 14 NA NA NA NA NA 46.8 NA
LaCacheMS Jan 25, 2018 1410 3 NA 14 NA NA NA NA NA 46.8 NA
LaCacheMS Jan 24, 2018 1410 8 NA 14 NA NA NA NA 8 NA 35 NA
LaCacheMS Feb 7, 2018 1410 4 NA 20 NA NA NA 8.2 8.7 NA 35 NA
LaCacheMS Feb 8, 2018 1410 8 NA 20 NA NA NA 9 8.4 NA NA NA
LaCacheMS Feb 7, 2018 14:10 8 NA 19 NA NA NA NA NA 28 NA
LaCacheMS Feb 7, 2018 1420 2 NA 16 NA NA NA 7 91 NA 34 NA
LaCacheMS Feb 7, 2018 1410 5 NA 18 NA NA NA 9.25 8.2 NA 32 NA
LaCacheMS Feb 7, 2018 1410 5 NA 18 NA NA NA 9.25 8.2 NA 32 NA
LaCacheMS Feb 8, 2018 14:10 7 NA 24 NA NA NA 6.2 9.2 NA 32.2 NA
LaCacheMS Feb 7, 2018 1410 5 NA 18 NA NA NA 9.25 8.2 NA 32 NA
LaCacheMS Feb 7, 2018 14:10 4 NA 16 NA NA NA 9.2 8.1 NA 32 NA
LaCacheMS Dec 11, 2018 10:43 2 NA 9 NA 3 NA 7.8 8.8 NA 27.5 NA
LaCacheMS Dec 11, 2018 10:43 4 NA 13 NA 3 NA 5 6.8 NA 33 NA
LaCacheMS Dec 11, 2018 10:43 6 NA 15 NA 3 NA 6.8 8.2 NA 40.16 NA
LaCacheMS Dec 11, 2018 0612 0 NA NA NA 3 NA NA NA NA NA
LaCacheMS Dec 11, 2018 10 NA 13 NA 3 NA 7.2 8.0 NA 36 NA
LaCacheMS Dec 11, 2018 10:43 1 NA 13 NA 3 NA 7.2 8.0 NA 36 NA
LaCacheMS Dec 11, 2018 10:42 5 NA 15 NA 3 NA 6 8.0 NA 32.5 NA
LaCacheMS Dec 11, 2018 10:43 7 NA 14 NA 7 NA 6.8 8.8 NA 28 NA
LaCacheMS Jan 28, 2019 10:40 6 NA 8 NA 3 NA 7 8.6 NA 27 NA
LaCacheMS Jan 28, 2019 1040 1 NA 13 NA 3 NA 7.2 8.8 NA 34 NA
LaCacheMS Jan 28, 2019 10:40 3 NA 12 NA 3 NA 8 8.8 NA 30 NA